sensor_id;sensor_type;location;lat;lon;timestamp;temperature;humidity
75357;HTU21D;63946;51.986;5.930;2023-05-18T05:40:16;11.79;47.60
75357;HTU21D;63946;51.986;5.930;2023-05-18T05:42:46;11.62;48.04
75357;HTU21D;63946;51.986;5.930;2023-05-18T05:45:15;11.46;48.52
75357;HTU21D;63946;51.986;5.930;2023-05-18T05:47:47;11.51;48.56
75357;HTU21D;63946;51.986;5.930;2023-05-18T05:50:18;11.44;48.34
75357;HTU21D;63946;51.986;5.930;2023-05-18T05:52:49;11.18;48.77
75357;HTU21D;63946;51.986;5.930;2023-05-18T05:55:18;11.02;49.15
75357;HTU21D;63946;51.986;5.930;2023-05-18T05:57:47;10.84;49.40
75357;HTU21D;63946;51.986;5.930;2023-05-18T06:00:16;10.79;49.75
75357;HTU21D;63946;51.986;5.930;2023-05-18T06:02:51;10.75;49.71
75357;HTU21D;63946;51.986;5.930;2023-05-18T06:05:27;10.66;49.75
75357;HTU21D;63946;51.986;5.930;2023-05-18T06:07:56;10.46;49.98
75357;HTU21D;63946;51.986;5.930;2023-05-18T06:10:25;10.37;50.54
75357;HTU21D;63946;51.986;5.930;2023-05-18T06:12:53;10.45;50.75
75357;HTU21D;63946;51.986;5.930;2023-05-18T06:15:28;10.40;50.53
75357;HTU21D;63946;51.986;5.930;2023-05-18T06:17:57;10.29;50.90
75357;HTU21D;63946;51.986;5.930;2023-05-18T06:20:26;10.33;50.88
75357;HTU21D;63946;51.986;5.930;2023-05-18T06:22:55;10.35;51.09
75357;HTU21D;63946;51.986;5.930;2023-05-18T06:25:41;10.42;50.74
75357;HTU21D;63946;51.986;5.930;2023-05-18T06:28:25;10.40;50.76
75357;HTU21D;63946;51.986;5.930;2023-05-18T06:31:14;10.29;50.77
75357;HTU21D;63946;51.986;5.930;2023-05-18T06:33:49;10.27;51.01
75357;HTU21D;63946;51.986;5.930;2023-05-18T06:36:18;10.39;50.99
75357;HTU21D;63946;51.986;5.930;2023-05-18T06:38:47;10.43;50.79
75357;HTU21D;63946;51.986;5.930;2023-05-18T06:41:16;10.53;50.76
75357;HTU21D;63946;51.986;5.930;2023-05-18T06:43:45;10.67;50.31
75357;HTU21D;63946;51.986;5.930;2023-05-18T06:46:22;10.85;50.23
75357;HTU21D;63946;51.986;5.930;2023-05-18T06:48:54;11.12;49.75
75357;HTU21D;63946;51.986;5.930;2023-05-18T06:51:24;11.40;49.27
75357;HTU21D;63946;51.986;5.930;2023-05-18T06:53:54;11.44;48.74
75357;HTU21D;63946;51.986;5.930;2023-05-18T06:56:24;11.51;48.67
75357;HTU21D;63946;51.986;5.930;2023-05-18T06:58:54;11.69;48.67
75357;HTU21D;63946;51.986;5.930;2023-05-18T07:01:23;11.93;48.10
75357;HTU21D;63946;51.986;5.930;2023-05-18T07:03:54;12.14;47.76
75357;HTU21D;63946;51.986;5.930;2023-05-18T07:06:23;12.11;47.52
75357;HTU21D;63946;51.986;5.930;2023-05-18T07:08:52;12.05;47.96
75357;HTU21D;63946;51.986;5.930;2023-05-18T07:11:20;12.11;47.56
75357;HTU21D;63946;51.986;5.930;2023-05-18T07:13:49;12.10;47.80
75357;HTU21D;63946;51.986;5.930;2023-05-18T07:16:18;12.21;47.97
75357;HTU21D;63946;51.986;5.930;2023-05-18T07:18:49;12.31;47.83
75357;HTU21D;63946;51.986;5.930;2023-05-18T07:21:18;12.45;47.70
75357;HTU21D;63946;51.986;5.930;2023-05-18T07:23:47;12.65;47.02
75357;HTU21D;63946;51.986;5.930;2023-05-18T07:26:18;12.85;46.65
75357;HTU21D;63946;51.986;5.930;2023-05-18T07:28:48;12.80;46.41
75357;HTU21D;63946;51.986;5.930;2023-05-18T07:31:20;12.97;46.51
75357;HTU21D;63946;51.986;5.930;2023-05-18T07:33:48;13.10;46.44
75357;HTU21D;63946;51.986;5.930;2023-05-18T07:36:17;13.25;45.93
75357;HTU21D;63946;51.986;5.930;2023-05-18T07:38:46;13.33;45.80
75357;HTU21D;63946;51.986;5.930;2023-05-18T07:41:24;13.46;45.71
75357;HTU21D;63946;51.986;5.930;2023-05-18T07:43:53;13.65;45.71
75357;HTU21D;63946;51.986;5.930;2023-05-18T07:46:21;13.80;45.03
75357;HTU21D;63946;51.986;5.930;2023-05-18T07:48:50;13.95;44.78
75357;HTU21D;63946;51.986;5.930;2023-05-18T07:51:19;14.18;44.49
75357;HTU21D;63946;51.986;5.930;2023-05-18T07:53:48;14.17;44.38
75357;HTU21D;63946;51.986;5.930;2023-05-18T07:56:16;14.32;44.01
75357;HTU21D;63946;51.986;5.930;2023-05-18T07:58:45;14.25;43.29
75357;HTU21D;63946;51.986;5.930;2023-05-18T08:01:14;13.97;43.61
75357;HTU21D;63946;51.986;5.930;2023-05-18T08:03:43;13.79;43.51
75357;HTU21D;63946;51.986;5.930;2023-05-18T08:06:12;13.79;43.96
75357;HTU21D;63946;51.986;5.930;2023-05-18T08:08:40;13.92;43.16
75357;HTU21D;63946;51.986;5.930;2023-05-18T08:11:12;13.97;42.81
75357;HTU21D;63946;51.986;5.930;2023-05-18T08:13:40;13.95;43.29
75357;HTU21D;63946;51.986;5.930;2023-05-18T08:16:09;14.01;42.97
75357;HTU21D;63946;51.986;5.930;2023-05-18T08:18:38;14.05;43.03
75357;HTU21D;63946;51.986;5.930;2023-05-18T08:21:08;13.76;43.40
75357;HTU21D;63946;51.986;5.930;2023-05-18T08:23:37;13.76;43.61
75357;HTU21D;63946;51.986;5.930;2023-05-18T08:26:06;13.82;44.00
75357;HTU21D;63946;51.986;5.930;2023-05-18T08:28:37;13.69;43.66
75357;HTU21D;63946;51.986;5.930;2023-05-18T08:31:09;13.69;44.38
75357;HTU21D;63946;51.986;5.930;2023-05-18T08:33:41;13.89;43.85
75357;HTU21D;63946;51.986;5.930;2023-05-18T08:36:10;13.98;43.54
75357;HTU21D;63946;51.986;5.930;2023-05-18T08:38:39;13.95;43.44
75357;HTU21D;63946;51.986;5.930;2023-05-18T08:41:28;14.13;43.15
75357;HTU21D;63946;51.986;5.930;2023-05-18T08:44:12;14.19;42.71
75357;HTU21D;63946;51.986;5.930;2023-05-18T08:46:44;14.07;42.58
75357;HTU21D;63946;51.986;5.930;2023-05-18T08:49:17;13.84;43.29
75357;HTU21D;63946;51.986;5.930;2023-05-18T08:51:55;13.77;43.33
75357;HTU21D;63946;51.986;5.930;2023-05-18T08:54:25;13.62;43.88
75357;HTU21D;63946;51.986;5.930;2023-05-18T08:56:54;13.69;43.65
75357;HTU21D;63946;51.986;5.930;2023-05-18T08:59:26;13.73;43.66
75357;HTU21D;63946;51.986;5.930;2023-05-18T09:01:57;13.79;43.45
75357;HTU21D;63946;51.986;5.930;2023-05-18T09:04:26;13.61;43.58
75357;HTU21D;63946;51.986;5.930;2023-05-18T09:06:57;13.56;43.61
75357;HTU21D;63946;51.986;5.930;2023-05-18T09:09:27;13.54;43.87
75357;HTU21D;63946;51.986;5.930;2023-05-18T09:12:01;13.55;43.68
75357;HTU21D;63946;51.986;5.930;2023-05-18T09:14:31;13.39;43.64
75357;HTU21D;63946;51.986;5.930;2023-05-18T09:17:00;13.34;43.85
75357;HTU21D;63946;51.986;5.930;2023-05-18T09:19:28;13.37;43.75
75357;HTU21D;63946;51.986;5.930;2023-05-18T09:21:59;13.50;44.02
75357;HTU21D;63946;51.986;5.930;2023-05-18T09:24:28;13.73;43.48
75357;HTU21D;63946;51.986;5.930;2023-05-18T09:26:57;13.82;42.66
75357;HTU21D;63946;51.986;5.930;2023-05-18T09:29:26;13.80;42.34
75357;HTU21D;63946;51.986;5.930;2023-05-18T09:31:56;13.71;42.26
75357;HTU21D;63946;51.986;5.930;2023-05-18T09:34:38;13.88;41.97
75357;HTU21D;63946;51.986;5.930;2023-05-18T09:37:10;13.99;41.74
75357;HTU21D;63946;51.986;5.930;2023-05-18T09:39:40;14.24;41.71
75357;HTU21D;63946;51.986;5.930;2023-05-18T09:42:09;14.58;41.23
75357;HTU21D;63946;51.986;5.930;2023-05-18T09:44:38;14.69;40.68
75357;HTU21D;63946;51.986;5.930;2023-05-18T09:47:08;14.75;40.53
75357;HTU21D;63946;51.986;5.930;2023-05-18T09:49:37;14.89;40.38
75357;HTU21D;63946;51.986;5.930;2023-05-18T09:52:10;14.83;40.12
75357;HTU21D;63946;51.986;5.930;2023-05-18T09:54:39;14.93;40.16
75357;HTU21D;63946;51.986;5.930;2023-05-18T09:57:08;15.04;40.21
75357;HTU21D;63946;51.986;5.930;2023-05-18T09:59:40;15.17;40.05
75357;HTU21D;63946;51.986;5.930;2023-05-18T10:02:11;15.16;40.04
75357;HTU21D;63946;51.986;5.930;2023-05-18T10:04:42;15.34;39.90
75357;HTU21D;63946;51.986;5.930;2023-05-18T10:07:12;15.16;39.29
75357;HTU21D;63946;51.986;5.930;2023-05-18T10:09:46;14.89;40.30
75357;HTU21D;63946;51.986;5.930;2023-05-18T10:12:31;15.10;40.78
75357;HTU21D;63946;51.986;5.930;2023-05-18T10:15:00;15.25;40.08
75357;HTU21D;63946;51.986;5.930;2023-05-18T10:17:31;15.02;40.10
75357;HTU21D;63946;51.986;5.930;2023-05-18T10:20:03;14.97;40.42
75357;HTU21D;63946;51.986;5.930;2023-05-18T10:22:36;15.12;40.58
75357;HTU21D;63946;51.986;5.930;2023-05-18T10:25:09;15.29;39.51
75357;HTU21D;63946;51.986;5.930;2023-05-18T10:27:40;15.04;40.17
75357;HTU21D;63946;51.986;5.930;2023-05-18T10:30:10;15.08;40.40
75357;HTU21D;63946;51.986;5.930;2023-05-18T10:32:39;14.94;39.97
75357;HTU21D;63946;51.986;5.930;2023-05-18T10:35:13;14.74;40.07
75357;HTU21D;63946;51.986;5.930;2023-05-18T10:37:47;14.60;39.76
75357;HTU21D;63946;51.986;5.930;2023-05-18T10:40:18;14.48;40.26
75357;HTU21D;63946;51.986;5.930;2023-05-18T10:42:50;14.51;40.37
75357;HTU21D;63946;51.986;5.930;2023-05-18T10:45:23;14.64;40.53
75357;HTU21D;63946;51.986;5.930;2023-05-18T10:47:54;14.81;40.26
75357;HTU21D;63946;51.986;5.930;2023-05-18T10:50:27;14.96;40.03
75357;HTU21D;63946;51.986;5.930;2023-05-18T10:52:58;15.00;39.91
75357;HTU21D;63946;51.986;5.930;2023-05-18T10:55:27;15.24;39.90
75357;HTU21D;63946;51.986;5.930;2023-05-18T10:58:01;15.27;38.99
75357;HTU21D;63946;51.986;5.930;2023-05-18T11:00:38;15.30;39.39
75357;HTU21D;63946;51.986;5.930;2023-05-18T11:03:13;15.15;39.34
75357;HTU21D;63946;51.986;5.930;2023-05-18T11:06:07;15.19;39.49
75357;HTU21D;63946;51.986;5.930;2023-05-18T11:08:46;15.21;38.52
75357;HTU21D;63946;51.986;5.930;2023-05-18T11:11:16;15.26;38.52
75357;HTU21D;63946;51.986;5.930;2023-05-18T11:13:49;15.17;38.55
75357;HTU21D;63946;51.986;5.930;2023-05-18T11:16:31;15.37;38.69
75357;HTU21D;63946;51.986;5.930;2023-05-18T11:19:08;15.71;38.42
75357;HTU21D;63946;51.986;5.930;2023-05-18T11:26:46;15.49;38.01
75357;HTU21D;63946;51.986;5.930;2023-05-18T11:29:30;15.44;37.85
75357;HTU21D;63946;51.986;5.930;2023-05-18T11:32:22;15.40;38.18
75357;HTU21D;63946;51.986;5.930;2023-05-18T11:34:53;15.36;38.30
75357;HTU21D;63946;51.986;5.930;2023-05-18T11:40:11;15.32;38.31
75357;HTU21D;63946;51.986;5.930;2023-05-18T11:42:40;15.37;37.56
75357;HTU21D;63946;51.986;5.930;2023-05-18T11:45:11;15.18;38.29
75357;HTU21D;63946;51.986;5.930;2023-05-18T11:47:42;15.33;38.20
75357;HTU21D;63946;51.986;5.930;2023-05-18T11:50:16;15.58;38.14
75357;HTU21D;63946;51.986;5.930;2023-05-18T11:53:02;16.05;37.92
75357;HTU21D;63946;51.986;5.930;2023-05-18T11:55:37;16.30;37.71
75357;HTU21D;63946;51.986;5.930;2023-05-18T11:58:10;16.54;37.75
75357;HTU21D;63946;51.986;5.930;2023-05-18T12:00:49;16.82;36.85
75357;HTU21D;63946;51.986;5.930;2023-05-18T12:03:22;16.82;36.95
75357;HTU21D;63946;51.986;5.930;2023-05-18T12:05:59;17.04;37.08
75357;HTU21D;63946;51.986;5.930;2023-05-18T12:08:30;17.30;36.28
75357;HTU21D;63946;51.986;5.930;2023-05-18T12:11:01;17.26;34.97
75357;HTU21D;63946;51.986;5.930;2023-05-18T12:13:32;16.82;35.53
75357;HTU21D;63946;51.986;5.930;2023-05-18T12:16:04;16.66;36.00
75357;HTU21D;63946;51.986;5.930;2023-05-18T12:18:34;16.79;35.49
75357;HTU21D;63946;51.986;5.930;2023-05-18T12:21:06;16.89;35.40
75357;HTU21D;63946;51.986;5.930;2023-05-18T12:23:44;16.67;35.51
75357;HTU21D;63946;51.986;5.930;2023-05-18T12:26:15;16.54;35.62
75357;HTU21D;63946;51.986;5.930;2023-05-18T12:28:47;16.46;35.88
75357;HTU21D;63946;51.986;5.930;2023-05-18T12:31:26;16.33;35.72
75357;HTU21D;63946;51.986;5.930;2023-05-18T12:33:56;16.08;35.66
75357;HTU21D;63946;51.986;5.930;2023-05-18T12:36:27;15.86;36.31
75357;HTU21D;63946;51.986;5.930;2023-05-18T12:39:00;15.72;36.63
75357;HTU21D;63946;51.986;5.930;2023-05-18T12:41:36;15.44;37.35
75357;HTU21D;63946;51.986;5.930;2023-05-18T12:44:06;15.42;37.97
75357;HTU21D;63946;51.986;5.930;2023-05-18T12:46:37;15.40;37.93
75357;HTU21D;63946;51.986;5.930;2023-05-18T12:49:10;15.52;37.94
75357;HTU21D;63946;51.986;5.930;2023-05-18T12:51:39;15.54;37.82
75357;HTU21D;63946;51.986;5.930;2023-05-18T12:54:08;15.70;38.01
75357;HTU21D;63946;51.986;5.930;2023-05-18T12:56:50;16.01;37.41
75357;HTU21D;63946;51.986;5.930;2023-05-18T12:59:24;16.29;37.37
75357;HTU21D;63946;51.986;5.930;2023-05-18T13:01:55;16.54;36.99
75357;HTU21D;63946;51.986;5.930;2023-05-18T13:04:32;16.58;37.10
75357;HTU21D;63946;51.986;5.930;2023-05-18T13:07:02;16.59;36.56
75357;HTU21D;63946;51.986;5.930;2023-05-18T13:09:31;16.47;35.94
75357;HTU21D;63946;51.986;5.930;2023-05-18T13:11:59;16.22;36.09
75357;HTU21D;63946;51.986;5.930;2023-05-18T13:14:36;16.15;35.95
75357;HTU21D;63946;51.986;5.930;2023-05-18T13:17:08;16.13;36.27
75357;HTU21D;63946;51.986;5.930;2023-05-18T13:19:37;16.11;36.38
75357;HTU21D;63946;51.986;5.930;2023-05-18T13:22:05;15.97;36.43
75357;HTU21D;63946;51.986;5.930;2023-05-18T13:24:37;15.81;36.73
75357;HTU21D;63946;51.986;5.930;2023-05-18T13:27:07;15.76;36.88
75357;HTU21D;63946;51.986;5.930;2023-05-18T13:29:37;15.77;36.95
75357;HTU21D;63946;51.986;5.930;2023-05-18T13:32:10;15.82;37.21
75357;HTU21D;63946;51.986;5.930;2023-05-18T13:34:39;15.85;37.27
75357;HTU21D;63946;51.986;5.930;2023-05-18T13:37:16;15.68;37.40
75357;HTU21D;63946;51.986;5.930;2023-05-18T13:39:45;15.66;38.04
75357;HTU21D;63946;51.986;5.930;2023-05-18T13:42:14;15.80;37.94
75357;HTU21D;63946;51.986;5.930;2023-05-18T13:44:46;16.05;37.28
75357;HTU21D;63946;51.986;5.930;2023-05-18T13:47:16;16.19;36.75
75357;HTU21D;63946;51.986;5.930;2023-05-18T13:49:47;16.37;36.42
75357;HTU21D;63946;51.986;5.930;2023-05-18T13:52:16;16.59;36.01
75357;HTU21D;63946;51.986;5.930;2023-05-18T13:54:47;16.72;36.13
75357;HTU21D;63946;51.986;5.930;2023-05-18T13:57:34;16.94;35.40
75357;HTU21D;63946;51.986;5.930;2023-05-18T14:00:06;16.89;35.55
75357;HTU21D;63946;51.986;5.930;2023-05-18T14:02:43;17.22;35.05
75357;HTU21D;63946;51.986;5.930;2023-05-18T14:05:13;17.41;34.95
75357;HTU21D;63946;51.986;5.930;2023-05-18T14:07:46;17.61;34.62
75357;HTU21D;63946;51.986;5.930;2023-05-18T14:10:17;17.65;34.08
75357;HTU21D;63946;51.986;5.930;2023-05-18T14:12:49;17.59;33.87
75357;HTU21D;63946;51.986;5.930;2023-05-18T14:15:19;17.61;33.60
75357;HTU21D;63946;51.986;5.930;2023-05-18T14:17:50;17.63;34.05
75357;HTU21D;63946;51.986;5.930;2023-05-18T14:20:19;17.64;33.57
75357;HTU21D;63946;51.986;5.930;2023-05-18T14:23:01;17.56;33.37
75357;HTU21D;63946;51.986;5.930;2023-05-18T14:25:29;17.46;33.81
75357;HTU21D;63946;51.986;5.930;2023-05-18T14:28:02;17.45;34.24
75357;HTU21D;63946;51.986;5.930;2023-05-18T14:30:31;17.44;34.31
75357;HTU21D;63946;51.986;5.930;2023-05-18T14:33:00;17.47;34.28
75357;HTU21D;63946;51.986;5.930;2023-05-18T14:35:31;17.33;34.27
75357;HTU21D;63946;51.986;5.930;2023-05-18T14:38:04;17.36;34.14
75357;HTU21D;63946;51.986;5.930;2023-05-18T14:40:33;17.28;34.08
75357;HTU21D;63946;51.986;5.930;2023-05-18T14:43:07;17.26;33.64
75357;HTU21D;63946;51.986;5.930;2023-05-18T14:45:37;17.00;34.18
75357;HTU21D;63946;51.986;5.930;2023-05-18T14:48:09;17.05;34.31
75357;HTU21D;63946;51.986;5.930;2023-05-18T14:50:44;17.11;34.77
75357;HTU21D;63946;51.986;5.930;2023-05-18T14:53:20;17.20;34.81
75357;HTU21D;63946;51.986;5.930;2023-05-18T14:55:52;17.37;33.91
75357;HTU21D;63946;51.986;5.930;2023-05-18T14:58:31;17.39;34.29
75357;HTU21D;63946;51.986;5.930;2023-05-18T15:01:05;17.43;33.99
75357;HTU21D;63946;51.986;5.930;2023-05-18T15:03:36;17.44;33.15
75357;HTU21D;63946;51.986;5.930;2023-05-18T15:06:10;17.18;32.82
75357;HTU21D;63946;51.986;5.930;2023-05-18T15:08:39;17.01;33.41
75357;HTU21D;63946;51.986;5.930;2023-05-18T15:11:12;17.02;33.63
75357;HTU21D;63946;51.986;5.930;2023-05-18T15:13:45;17.01;33.67
75357;HTU21D;63946;51.986;5.930;2023-05-18T15:16:14;17.00;33.89
75357;HTU21D;63946;51.986;5.930;2023-05-18T15:18:45;17.04;33.71
75357;HTU21D;63946;51.986;5.930;2023-05-18T15:21:13;17.07;33.56
75357;HTU21D;63946;51.986;5.930;2023-05-18T15:23:42;17.03;33.73
75357;HTU21D;63946;51.986;5.930;2023-05-18T15:26:11;17.06;33.88
75357;HTU21D;63946;51.986;5.930;2023-05-18T15:28:40;16.94;33.90
75357;HTU21D;63946;51.986;5.930;2023-05-18T15:31:09;16.96;34.63
75357;HTU21D;63946;51.986;5.930;2023-05-18T15:33:38;17.18;34.77
75357;HTU21D;63946;51.986;5.930;2023-05-18T15:36:10;17.29;34.70
75357;HTU21D;63946;51.986;5.930;2023-05-18T15:38:42;17.30;34.51
75357;HTU21D;63946;51.986;5.930;2023-05-18T15:41:11;17.26;34.47
75357;HTU21D;63946;51.986;5.930;2023-05-18T15:43:39;17.31;34.18
75357;HTU21D;63946;51.986;5.930;2023-05-18T15:46:09;17.24;34.18
75357;HTU21D;63946;51.986;5.930;2023-05-18T15:48:38;17.18;33.86
75357;HTU21D;63946;51.986;5.930;2023-05-18T15:51:09;17.08;33.71
75357;HTU21D;63946;51.986;5.930;2023-05-18T15:53:41;17.08;34.31
75357;HTU21D;63946;51.986;5.930;2023-05-18T15:56:10;17.11;33.91
75357;HTU21D;63946;51.986;5.930;2023-05-18T15:58:38;17.03;33.99
75357;HTU21D;63946;51.986;5.930;2023-05-18T16:01:09;16.99;33.99
75357;HTU21D;63946;51.986;5.930;2023-05-18T16:03:40;16.88;34.45
75357;HTU21D;63946;51.986;5.930;2023-05-18T16:06:10;16.89;34.51
75357;HTU21D;63946;51.986;5.930;2023-05-18T16:08:38;16.89;34.63
75357;HTU21D;63946;51.986;5.930;2023-05-18T16:11:10;16.94;34.58
75357;HTU21D;63946;51.986;5.930;2023-05-18T16:13:39;16.98;34.10
75357;HTU21D;63946;51.986;5.930;2023-05-18T16:16:08;16.95;34.41
75357;HTU21D;63946;51.986;5.930;2023-05-18T16:18:41;17.02;34.16
75357;HTU21D;63946;51.986;5.930;2023-05-18T16:21:10;16.99;34.16
75357;HTU21D;63946;51.986;5.930;2023-05-18T16:23:38;16.91;34.37
75357;HTU21D;63946;51.986;5.930;2023-05-18T16:26:08;16.91;34.40
75357;HTU21D;63946;51.986;5.930;2023-05-18T16:28:37;16.88;34.18
75357;HTU21D;63946;51.986;5.930;2023-05-18T16:31:06;16.76;33.78
75357;HTU21D;63946;51.986;5.930;2023-05-18T16:33:40;16.61;33.89
75357;HTU21D;63946;51.986;5.930;2023-05-18T16:36:08;16.57;33.88
75357;HTU21D;63946;51.986;5.930;2023-05-18T16:38:37;16.55;33.73
75357;HTU21D;63946;51.986;5.930;2023-05-18T16:41:09;16.52;33.70
75357;HTU21D;63946;51.986;5.930;2023-05-18T16:43:42;16.49;33.62
75357;HTU21D;63946;51.986;5.930;2023-05-18T16:46:11;16.47;33.33
75357;HTU21D;63946;51.986;5.930;2023-05-18T16:48:39;16.33;33.57
75357;HTU21D;63946;51.986;5.930;2023-05-18T16:51:13;16.25;33.87
75357;HTU21D;63946;51.986;5.930;2023-05-18T16:53:42;16.28;34.10
75357;HTU21D;63946;51.986;5.930;2023-05-18T16:56:10;16.21;34.15
75357;HTU21D;63946;51.986;5.930;2023-05-18T16:58:39;16.17;34.29
75357;HTU21D;63946;51.986;5.930;2023-05-18T17:01:11;16.14;34.61
75357;HTU21D;63946;51.986;5.930;2023-05-18T17:03:39;16.16;34.53
75357;HTU21D;63946;51.986;5.930;2023-05-18T17:06:08;16.02;34.75
75357;HTU21D;63946;51.986;5.930;2023-05-18T17:08:37;16.02;35.02
75357;HTU21D;63946;51.986;5.930;2023-05-18T17:11:06;16.03;35.37
75357;HTU21D;63946;51.986;5.930;2023-05-18T17:13:34;16.05;35.59
75357;HTU21D;63946;51.986;5.930;2023-05-18T17:16:05;16.05;35.73
75357;HTU21D;63946;51.986;5.930;2023-05-18T17:18:34;16.11;35.95
75357;HTU21D;63946;51.986;5.930;2023-05-18T17:21:03;16.18;35.81
75357;HTU21D;63946;51.986;5.930;2023-05-18T17:23:32;16.14;35.64
75357;HTU21D;63946;51.986;5.930;2023-05-18T17:26:01;16.04;35.80
75357;HTU21D;63946;51.986;5.930;2023-05-18T17:28:30;15.98;35.59
75357;HTU21D;63946;51.986;5.930;2023-05-18T17:30:59;15.91;35.61
75357;HTU21D;63946;51.986;5.930;2023-05-18T17:33:28;15.88;35.60
75357;HTU21D;63946;51.986;5.930;2023-05-18T17:35:56;15.86;35.74
75357;HTU21D;63946;51.986;5.930;2023-05-18T17:41:17;15.82;35.66
75357;HTU21D;63946;51.986;5.930;2023-05-18T17:43:49;15.81;35.59
75357;HTU21D;63946;51.986;5.930;2023-05-18T17:46:18;15.81;35.50
75357;HTU21D;63946;51.986;5.930;2023-05-18T17:48:47;15.76;35.63
75357;HTU21D;63946;51.986;5.930;2023-05-18T17:51:16;15.75;35.79
75357;HTU21D;63946;51.986;5.930;2023-05-18T17:53:47;15.75;35.89
75357;HTU21D;63946;51.986;5.930;2023-05-18T17:56:16;15.71;36.14
75357;HTU21D;63946;51.986;5.930;2023-05-18T17:58:47;15.71;36.19
75357;HTU21D;63946;51.986;5.930;2023-05-18T18:01:20;15.67;36.25
75357;HTU21D;63946;51.986;5.930;2023-05-18T18:03:49;15.63;36.31
75357;HTU21D;63946;51.986;5.930;2023-05-18T18:06:18;15.63;36.24
75357;HTU21D;63946;51.986;5.930;2023-05-18T18:08:48;15.58;36.52
75357;HTU21D;63946;51.986;5.930;2023-05-18T18:11:19;15.57;36.68
75357;HTU21D;63946;51.986;5.930;2023-05-18T18:13:49;15.56;36.91
75357;HTU21D;63946;51.986;5.930;2023-05-18T18:16:18;15.53;36.80
75357;HTU21D;63946;51.986;5.930;2023-05-18T18:18:48;15.47;36.96
75357;HTU21D;63946;51.986;5.930;2023-05-18T18:21:17;15.47;37.07
75357;HTU21D;63946;51.986;5.930;2023-05-18T18:23:51;15.45;37.19
75357;HTU21D;63946;51.986;5.930;2023-05-18T18:26:25;15.45;37.31
75357;HTU21D;63946;51.986;5.930;2023-05-18T18:28:54;15.43;37.56
75357;HTU21D;63946;51.986;5.930;2023-05-18T18:31:26;15.38;37.53
75357;HTU21D;63946;51.986;5.930;2023-05-18T18:34:04;15.31;37.77
75357;HTU21D;63946;51.986;5.930;2023-05-18T18:36:33;15.28;37.92
75357;HTU21D;63946;51.986;5.930;2023-05-18T18:39:02;15.26;37.98
75357;HTU21D;63946;51.986;5.930;2023-05-18T18:41:31;15.22;38.04
75357;HTU21D;63946;51.986;5.930;2023-05-18T18:44:07;15.21;38.14
75357;HTU21D;63946;51.986;5.930;2023-05-18T18:46:36;15.14;38.25
75357;HTU21D;63946;51.986;5.930;2023-05-18T18:49:05;15.08;38.40
75357;HTU21D;63946;51.986;5.930;2023-05-18T18:51:34;15.06;38.47
75357;HTU21D;63946;51.986;5.930;2023-05-18T18:54:05;15.03;38.64
75357;HTU21D;63946;51.986;5.930;2023-05-18T18:56:34;15.00;38.79
75357;HTU21D;63946;51.986;5.930;2023-05-18T18:59:03;14.94;38.88
75357;HTU21D;63946;51.986;5.930;2023-05-18T19:01:32;14.87;39.02
75357;HTU21D;63946;51.986;5.930;2023-05-18T19:04:01;14.86;39.13
75357;HTU21D;63946;51.986;5.930;2023-05-18T19:06:32;14.84;39.24
75357;HTU21D;63946;51.986;5.930;2023-05-18T19:09:01;14.80;39.45
75357;HTU21D;63946;51.986;5.930;2023-05-18T19:11:31;14.73;39.56
75357;HTU21D;63946;51.986;5.930;2023-05-18T19:14:00;14.69;39.84
75357;HTU21D;63946;51.986;5.930;2023-05-18T19:16:30;14.63;40.07
75357;HTU21D;63946;51.986;5.930;2023-05-18T19:19:00;14.54;40.36
75357;HTU21D;63946;51.986;5.930;2023-05-18T19:21:37;14.45;40.61
75357;HTU21D;63946;51.986;5.930;2023-05-18T19:24:06;14.37;40.74
75357;HTU21D;63946;51.986;5.930;2023-05-18T19:26:34;14.33;40.91
75357;HTU21D;63946;51.986;5.930;2023-05-18T19:29:03;14.27;41.08
75357;HTU21D;63946;51.986;5.930;2023-05-18T19:31:32;14.20;41.26
75357;HTU21D;63946;51.986;5.930;2023-05-18T19:34:02;14.14;41.48
75357;HTU21D;63946;51.986;5.930;2023-05-18T19:36:31;14.09;41.50
75357;HTU21D;63946;51.986;5.930;2023-05-18T19:39:00;14.05;41.53
75357;HTU21D;63946;51.986;5.930;2023-05-18T19:41:29;14.04;41.62
75357;HTU21D;63946;51.986;5.930;2023-05-18T19:44:01;14.00;41.74
75357;HTU21D;63946;51.986;5.930;2023-05-18T19:46:30;13.98;41.95
75357;HTU21D;63946;51.986;5.930;2023-05-18T19:49:02;13.94;42.04
75357;HTU21D;63946;51.986;5.930;2023-05-18T19:51:32;13.89;42.20
75357;HTU21D;63946;51.986;5.930;2023-05-18T19:54:03;13.82;42.39
75357;HTU21D;63946;51.986;5.930;2023-05-18T19:56:33;13.78;42.51
75357;HTU21D;63946;51.986;5.930;2023-05-18T19:59:02;13.75;42.65
75357;HTU21D;63946;51.986;5.930;2023-05-18T20:01:31;13.70;42.82
75357;HTU21D;63946;51.986;5.930;2023-05-18T20:04:00;13.67;42.84
75357;HTU21D;63946;51.986;5.930;2023-05-18T20:06:29;13.64;42.79
75357;HTU21D;63946;51.986;5.930;2023-05-18T20:08:59;13.61;42.89
75357;HTU21D;63946;51.986;5.930;2023-05-18T20:11:28;13.55;43.17
75357;HTU21D;63946;51.986;5.930;2023-05-18T20:13:56;13.53;43.22
75357;HTU21D;63946;51.986;5.930;2023-05-18T20:16:26;13.49;43.19
75357;HTU21D;63946;51.986;5.930;2023-05-18T20:18:58;13.44;43.30
75357;HTU21D;63946;51.986;5.930;2023-05-18T20:21:32;13.44;43.35
75357;HTU21D;63946;51.986;5.930;2023-05-18T20:24:01;13.39;43.60
75357;HTU21D;63946;51.986;5.930;2023-05-18T20:26:30;13.37;43.70
75357;HTU21D;63946;51.986;5.930;2023-05-18T20:28:59;13.32;43.73
75357;HTU21D;63946;51.986;5.930;2023-05-18T20:31:28;13.31;43.83
75357;HTU21D;63946;51.986;5.930;2023-05-18T20:33:56;13.26;43.84
75357;HTU21D;63946;51.986;5.930;2023-05-18T20:36:25;13.21;43.93
75357;HTU21D;63946;51.986;5.930;2023-05-18T20:38:54;13.18;44.08
75357;HTU21D;63946;51.986;5.930;2023-05-18T20:41:23;13.15;44.25
75357;HTU21D;63946;51.986;5.930;2023-05-18T20:43:52;13.14;44.33
75357;HTU21D;63946;51.986;5.930;2023-05-18T20:46:21;13.12;44.46
75357;HTU21D;63946;51.986;5.930;2023-05-18T20:48:52;13.10;44.70
75357;HTU21D;63946;51.986;5.930;2023-05-18T20:51:20;13.11;44.58
75357;HTU21D;63946;51.986;5.930;2023-05-18T20:53:49;13.17;44.58
75357;HTU21D;63946;51.986;5.930;2023-05-18T20:56:18;13.16;44.70
75357;HTU21D;63946;51.986;5.930;2023-05-18T20:58:47;13.12;44.91
75357;HTU21D;63946;51.986;5.930;2023-05-18T21:01:16;13.08;45.36
75357;HTU21D;63946;51.986;5.930;2023-05-18T21:03:46;13.02;45.86
75357;HTU21D;63946;51.986;5.930;2023-05-18T21:06:15;12.99;46.67
75357;HTU21D;63946;51.986;5.930;2023-05-18T21:08:44;12.92;47.66
75357;HTU21D;63946;51.986;5.930;2023-05-18T21:11:13;12.86;48.58
75357;HTU21D;63946;51.986;5.930;2023-05-18T21:13:42;12.79;49.33
75357;HTU21D;63946;51.986;5.930;2023-05-18T21:16:15;12.80;49.72
75357;HTU21D;63946;51.986;5.930;2023-05-18T21:18:46;12.79;50.34
75357;HTU21D;63946;51.986;5.930;2023-05-18T21:21:17;12.77;50.76
